sensor_id;sensor_type;location;lat;lon;timestamp;temperature;humidity
52509;DHT22;38420;53.150;6.370;2023-04-21T00:00:59;9.50;99.90
52509;DHT22;38420;53.150;6.370;2023-04-21T00:03:25;8.50;99.90
52509;DHT22;38420;53.150;6.370;2023-04-21T00:05:55;9.00;99.90
52509;DHT22;38420;53.150;6.370;2023-04-21T00:08:23;9.50;99.90
52509;DHT22;38420;53.150;6.370;2023-04-21T00:10:49;8.80;99.90
52509;DHT22;38420;53.150;6.370;2023-04-21T00:13:15;9.40;99.90
52509;DHT22;38420;53.150;6.370;2023-04-21T00:15:40;9.50;99.90
52509;DHT22;38420;53.150;6.370;2023-04-21T00:18:06;8.90;99.90
52509;DHT22;38420;53.150;6.370;2023-04-21T00:20:32;8.60;99.90
52509;DHT22;38420;53.150;6.370;2023-04-21T00:22:58;9.60;99.90
52509;DHT22;38420;53.150;6.370;2023-04-21T00:25:24;10.00;99.90
52509;DHT22;38420;53.150;6.370;2023-04-21T00:27:50;8.70;99.90
52509;DHT22;38420;53.150;6.370;2023-04-21T00:30:16;9.10;99.90
52509;DHT22;38420;53.150;6.370;2023-04-21T00:32:42;9.50;99.90
52509;DHT22;38420;53.150;6.370;2023-04-21T00:35:08;9.40;99.90
52509;DHT22;38420;53.150;6.370;2023-04-21T00:37:33;8.60;99.90
52509;DHT22;38420;53.150;6.370;2023-04-21T00:39:59;9.40;99.90
52509;DHT22;38420;53.150;6.370;2023-04-21T00:42:25;8.80;99.90
52509;DHT22;38420;53.150;6.370;2023-04-21T00:44:51;9.40;99.90
52509;DHT22;38420;53.150;6.370;2023-04-21T00:47:17;9.40;99.90
52509;DHT22;38420;53.150;6.370;2023-04-21T00:49:43;9.00;99.90
52509;DHT22;38420;53.150;6.370;2023-04-21T00:52:10;8.80;99.90
52509;DHT22;38420;53.150;6.370;2023-04-21T00:54:36;9.20;99.90
52509;DHT22;38420;53.150;6.370;2023-04-21T00:57:01;9.20;99.90
52509;DHT22;38420;53.150;6.370;2023-04-21T00:59:28;9.10;99.90
52509;DHT22;38420;53.150;6.370;2023-04-21T01:01:54;9.00;99.90
52509;DHT22;38420;53.150;6.370;2023-04-21T01:04:20;8.60;99.90
52509;DHT22;38420;53.150;6.370;2023-04-21T01:06:46;8.50;99.90
52509;DHT22;38420;53.150;6.370;2023-04-21T01:09:12;9.20;99.90
52509;DHT22;38420;53.150;6.370;2023-04-21T01:11:38;8.50;99.90
52509;DHT22;38420;53.150;6.370;2023-04-21T01:14:04;8.50;99.90
52509;DHT22;38420;53.150;6.370;2023-04-21T01:16:29;8.20;99.90
52509;DHT22;38420;53.150;6.370;2023-04-21T01:18:57;8.20;99.90
52509;DHT22;38420;53.150;6.370;2023-04-21T01:21:23;8.90;99.90
52509;DHT22;38420;53.150;6.370;2023-04-21T01:23:49;8.80;99.90
52509;DHT22;38420;53.150;6.370;2023-04-21T01:26:21;8.80;99.90
52509;DHT22;38420;53.150;6.370;2023-04-21T01:28:48;8.60;99.90
52509;DHT22;38420;53.150;6.370;2023-04-21T01:31:15;8.20;99.90
52509;DHT22;38420;53.150;6.370;2023-04-21T01:33:41;9.60;99.90
52509;DHT22;38420;53.150;6.370;2023-04-21T01:36:07;8.90;99.90
52509;DHT22;38420;53.150;6.370;2023-04-21T01:38:36;8.70;99.90
52509;DHT22;38420;53.150;6.370;2023-04-21T01:41:01;8.30;99.90
52509;DHT22;38420;53.150;6.370;2023-04-21T01:43:27;8.10;99.90
52509;DHT22;38420;53.150;6.370;2023-04-21T01:45:53;8.50;99.90
52509;DHT22;38420;53.150;6.370;2023-04-21T01:48:18;8.70;99.90
52509;DHT22;38420;53.150;6.370;2023-04-21T01:50:44;8.00;99.90
52509;DHT22;38420;53.150;6.370;2023-04-21T01:53:10;8.30;99.90
52509;DHT22;38420;53.150;6.370;2023-04-21T01:55:35;8.50;99.90
52509;DHT22;38420;53.150;6.370;2023-04-21T01:58:01;7.80;99.90
52509;DHT22;38420;53.150;6.370;2023-04-21T02:00:26;7.90;99.90
52509;DHT22;38420;53.150;6.370;2023-04-21T02:02:52;8.40;99.90
52509;DHT22;38420;53.150;6.370;2023-04-21T02:05:18;8.00;99.90
52509;DHT22;38420;53.150;6.370;2023-04-21T02:07:44;8.70;99.90
52509;DHT22;38420;53.150;6.370;2023-04-21T02:10:10;8.30;99.90
52509;DHT22;38420;53.150;6.370;2023-04-21T02:12:36;8.60;99.90
52509;DHT22;38420;53.150;6.370;2023-04-21T02:15:02;8.50;99.90
52509;DHT22;38420;53.150;6.370;2023-04-21T02:17:28;8.80;99.90
52509;DHT22;38420;53.150;6.370;2023-04-21T02:19:54;8.20;99.90
52509;DHT22;38420;53.150;6.370;2023-04-21T02:22:19;8.80;99.90
52509;DHT22;38420;53.150;6.370;2023-04-21T02:24:47;8.20;99.90
52509;DHT22;38420;53.150;6.370;2023-04-21T02:27:13;8.80;99.90
52509;DHT22;38420;53.150;6.370;2023-04-21T02:29:38;8.80;99.90
52509;DHT22;38420;53.150;6.370;2023-04-21T02:32:04;8.10;99.90
52509;DHT22;38420;53.150;6.370;2023-04-21T02:34:30;8.60;99.90
52509;DHT22;38420;53.150;6.370;2023-04-21T02:36:55;8.50;99.90
52509;DHT22;38420;53.150;6.370;2023-04-21T02:39:21;8.70;99.90
52509;DHT22;38420;53.150;6.370;2023-04-21T02:41:46;8.00;99.90
52509;DHT22;38420;53.150;6.370;2023-04-21T02:44:12;8.70;99.90
52509;DHT22;38420;53.150;6.370;2023-04-21T02:46:41;8.30;99.90
52509;DHT22;38420;53.150;6.370;2023-04-21T02:49:07;7.90;99.90
52509;DHT22;38420;53.150;6.370;2023-04-21T02:51:33;8.70;99.90
52509;DHT22;38420;53.150;6.370;2023-04-21T02:53:59;7.90;99.90
52509;DHT22;38420;53.150;6.370;2023-04-21T02:56:25;7.80;99.90
52509;DHT22;38420;53.150;6.370;2023-04-21T02:58:51;8.60;99.90
52509;DHT22;38420;53.150;6.370;2023-04-21T03:01:16;8.50;99.90
52509;DHT22;38420;53.150;6.370;2023-04-21T03:03:42;8.50;99.90
52509;DHT22;38420;53.150;6.370;2023-04-21T03:06:07;7.70;99.90
52509;DHT22;38420;53.150;6.370;2023-04-21T03:08:33;7.70;99.90
52509;DHT22;38420;53.150;6.370;2023-04-21T03:10:59;8.30;99.90
52509;DHT22;38420;53.150;6.370;2023-04-21T03:13:24;7.70;99.90
52509;DHT22;38420;53.150;6.370;2023-04-21T03:15:50;7.70;99.90
52509;DHT22;38420;53.150;6.370;2023-04-21T03:18:16;8.50;99.90
52509;DHT22;38420;53.150;6.370;2023-04-21T03:20:42;8.40;99.90
52509;DHT22;38420;53.150;6.370;2023-04-21T03:23:08;7.70;99.90
52509;DHT22;38420;53.150;6.370;2023-04-21T03:25:34;8.40;99.90
52509;DHT22;38420;53.150;6.370;2023-04-21T03:27:59;7.90;99.90
52509;DHT22;38420;53.150;6.370;2023-04-21T03:30:25;8.00;99.90
52509;DHT22;38420;53.150;6.370;2023-04-21T03:32:51;8.10;99.90
52509;DHT22;38420;53.150;6.370;2023-04-21T03:35:17;7.80;99.90
52509;DHT22;38420;53.150;6.370;2023-04-21T03:37:43;7.80;99.90
52509;DHT22;38420;53.150;6.370;2023-04-21T03:40:09;8.50;99.90
52509;DHT22;38420;53.150;6.370;2023-04-21T03:42:35;7.80;99.90
52509;DHT22;38420;53.150;6.370;2023-04-21T03:45:05;7.70;99.90
52509;DHT22;38420;53.150;6.370;2023-04-21T03:47:31;7.70;99.90
52509;DHT22;38420;53.150;6.370;2023-04-21T03:49:56;7.60;99.90
52509;DHT22;38420;53.150;6.370;2023-04-21T03:52:22;7.60;99.90
52509;DHT22;38420;53.150;6.370;2023-04-21T03:54:48;7.60;99.90
52509;DHT22;38420;53.150;6.370;2023-04-21T03:57:14;7.60;99.90
52509;DHT22;38420;53.150;6.370;2023-04-21T03:59:40;8.20;99.90
52509;DHT22;38420;53.150;6.370;2023-04-21T04:02:06;7.70;99.90
52509;DHT22;38420;53.150;6.370;2023-04-21T04:04:31;7.80;99.90
52509;DHT22;38420;53.150;6.370;2023-04-21T04:06:57;7.60;99.90
52509;DHT22;38420;53.150;6.370;2023-04-21T04:09:23;7.60;99.90
52509;DHT22;38420;53.150;6.370;2023-04-21T04:11:49;8.10;99.90
52509;DHT22;38420;53.150;6.370;2023-04-21T04:14:14;8.00;99.90
52509;DHT22;38420;53.150;6.370;2023-04-21T04:16:40;7.50;99.90
52509;DHT22;38420;53.150;6.370;2023-04-21T04:19:06;7.80;99.90
52509;DHT22;38420;53.150;6.370;2023-04-21T04:21:32;8.40;99.90
52509;DHT22;38420;53.150;6.370;2023-04-21T04:23:58;7.50;99.90
52509;DHT22;38420;53.150;6.370;2023-04-21T04:26:24;8.30;99.90
52509;DHT22;38420;53.150;6.370;2023-04-21T04:28:51;8.30;99.90
52509;DHT22;38420;53.150;6.370;2023-04-21T04:31:17;8.30;99.90
52509;DHT22;38420;53.150;6.370;2023-04-21T04:33:43;7.80;99.90
52509;DHT22;38420;53.150;6.370;2023-04-21T04:36:09;8.30;99.90
52509;DHT22;38420;53.150;6.370;2023-04-21T04:38:36;7.80;99.90
52509;DHT22;38420;53.150;6.370;2023-04-21T04:41:02;7.70;99.90
52509;DHT22;38420;53.150;6.370;2023-04-21T04:43:29;7.90;99.90
52509;DHT22;38420;53.150;6.370;2023-04-21T04:45:58;7.90;99.90
52509;DHT22;38420;53.150;6.370;2023-04-21T04:48:24;7.70;99.90
52509;DHT22;38420;53.150;6.370;2023-04-21T04:50:50;7.50;99.90
52509;DHT22;38420;53.150;6.370;2023-04-21T04:53:16;8.20;99.90
52509;DHT22;38420;53.150;6.370;2023-04-21T04:55:41;7.40;99.90
52509;DHT22;38420;53.150;6.370;2023-04-21T04:58:07;8.30;99.90
52509;DHT22;38420;53.150;6.370;2023-04-21T05:00:32;8.40;99.90
52509;DHT22;38420;53.150;6.370;2023-04-21T05:02:58;8.20;99.90
52509;DHT22;38420;53.150;6.370;2023-04-21T05:05:24;7.70;99.90
52509;DHT22;38420;53.150;6.370;2023-04-21T05:07:49;8.10;99.90
52509;DHT22;38420;53.150;6.370;2023-04-21T05:10:15;8.20;99.90
52509;DHT22;38420;53.150;6.370;2023-04-21T05:12:41;7.70;99.90
52509;DHT22;38420;53.150;6.370;2023-04-21T05:15:07;7.90;99.90
52509;DHT22;38420;53.150;6.370;2023-04-21T05:17:33;7.60;99.90
52509;DHT22;38420;53.150;6.370;2023-04-21T05:19:59;8.30;99.90
52509;DHT22;38420;53.150;6.370;2023-04-21T05:22:24;8.40;99.90
52509;DHT22;38420;53.150;6.370;2023-04-21T05:24:51;7.70;99.90
52509;DHT22;38420;53.150;6.370;2023-04-21T05:27:17;8.50;99.90
52509;DHT22;38420;53.150;6.370;2023-04-21T05:29:42;8.30;99.90
52509;DHT22;38420;53.150;6.370;2023-04-21T05:32:08;8.10;99.90
52509;DHT22;38420;53.150;6.370;2023-04-21T05:34:34;8.30;99.90
52509;DHT22;38420;53.150;6.370;2023-04-21T05:36:59;8.00;99.90
52509;DHT22;38420;53.150;6.370;2023-04-21T05:39:28;8.70;99.90
52509;DHT22;38420;53.150;6.370;2023-04-21T05:41:54;8.00;99.90
52509;DHT22;38420;53.150;6.370;2023-04-21T05:44:19;8.20;99.90
52509;DHT22;38420;53.150;6.370;2023-04-21T05:46:45;8.10;99.90
52509;DHT22;38420;53.150;6.370;2023-04-21T05:49:11;8.10;99.90
52509;DHT22;38420;53.150;6.370;2023-04-21T05:51:36;8.30;99.90
52509;DHT22;38420;53.150;6.370;2023-04-21T05:54:02;8.80;99.90
52509;DHT22;38420;53.150;6.370;2023-04-21T05:56:28;8.60;99.90
52509;DHT22;38420;53.150;6.370;2023-04-21T05:58:53;9.00;99.90
52509;DHT22;38420;53.150;6.370;2023-04-21T06:01:19;9.00;99.90
52509;DHT22;38420;53.150;6.370;2023-04-21T06:03:44;8.70;99.90
52509;DHT22;38420;53.150;6.370;2023-04-21T06:06:13;8.80;99.90
52509;DHT22;38420;53.150;6.370;2023-04-21T06:08:39;9.00;99.90
52509;DHT22;38420;53.150;6.370;2023-04-21T06:11:05;8.40;99.90
52509;DHT22;38420;53.150;6.370;2023-04-21T06:13:30;9.20;99.90
52509;DHT22;38420;53.150;6.370;2023-04-21T06:15:56;8.60;99.90
52509;DHT22;38420;53.150;6.370;2023-04-21T06:18:22;9.20;99.90
52509;DHT22;38420;53.150;6.370;2023-04-21T06:20:57;8.80;99.90
52509;DHT22;38420;53.150;6.370;2023-04-21T06:23:23;9.10;99.90
52509;DHT22;38420;53.150;6.370;2023-04-21T06:26:02;8.90;99.90
52509;DHT22;38420;53.150;6.370;2023-04-21T06:28:30;9.40;99.90
52509;DHT22;38420;53.150;6.370;2023-04-21T06:30:56;9.00;99.90
52509;DHT22;38420;53.150;6.370;2023-04-21T06:33:22;9.00;99.90
52509;DHT22;38420;53.150;6.370;2023-04-21T06:35:48;9.10;99.90
52509;DHT22;38420;53.150;6.370;2023-04-21T06:38:13;9.60;99.90
52509;DHT22;38420;53.150;6.370;2023-04-21T06:40:39;9.40;99.90
52509;DHT22;38420;53.150;6.370;2023-04-21T06:43:05;9.60;99.90
52509;DHT22;38420;53.150;6.370;2023-04-21T06:45:30;9.50;99.90
52509;DHT22;38420;53.150;6.370;2023-04-21T06:47:56;9.80;99.90
52509;DHT22;38420;53.150;6.370;2023-04-21T06:50:22;9.80;99.90
52509;DHT22;38420;53.150;6.370;2023-04-21T06:52:47;10.30;99.90
52509;DHT22;38420;53.150;6.370;2023-04-21T06:55:13;10.10;99.90
52509;DHT22;38420;53.150;6.370;2023-04-21T06:57:38;10.00;99.90
52509;DHT22;38420;53.150;6.370;2023-04-21T07:00:05;10.20;99.90
52509;DHT22;38420;53.150;6.370;2023-04-21T07:02:31;10.30;99.90
52509;DHT22;38420;53.150;6.370;2023-04-21T07:04:56;10.20;99.90
52509;DHT22;38420;53.150;6.370;2023-04-21T07:07:22;10.40;99.90
52509;DHT22;38420;53.150;6.370;2023-04-21T07:09:48;10.30;99.90
52509;DHT22;38420;53.150;6.370;2023-04-21T07:12:13;10.40;99.90
52509;DHT22;38420;53.150;6.370;2023-04-21T07:14:39;10.80;99.90
52509;DHT22;38420;53.150;6.370;2023-04-21T07:17:05;10.70;99.90
52509;DHT22;38420;53.150;6.370;2023-04-21T07:19:31;10.60;99.90
52509;DHT22;38420;53.150;6.370;2023-04-21T07:21:56;10.90;99.90
52509;DHT22;38420;53.150;6.370;2023-04-21T07:24:22;11.10;99.90
52509;DHT22;38420;53.150;6.370;2023-04-21T07:26:48;11.20;99.90
52509;DHT22;38420;53.150;6.370;2023-04-21T07:29:13;11.00;99.90
52509;DHT22;38420;53.150;6.370;2023-04-21T07:31:39;11.20;99.90
52509;DHT22;38420;53.150;6.370;2023-04-21T07:34:05;11.30;99.90
52509;DHT22;38420;53.150;6.370;2023-04-21T07:36:30;11.20;99.90
52509;DHT22;38420;53.150;6.370;2023-04-21T07:38:56;11.50;99.90
52509;DHT22;38420;53.150;6.370;2023-04-21T07:41:21;11.70;99.90
52509;DHT22;38420;53.150;6.370;2023-04-21T07:43:47;11.80;99.90
52509;DHT22;38420;53.150;6.370;2023-04-21T07:46:13;11.50;99.90
52509;DHT22;38420;53.150;6.370;2023-04-21T07:48:39;11.90;99.90
52509;DHT22;38420;53.150;6.370;2023-04-21T07:51:05;11.80;99.90
52509;DHT22;38420;53.150;6.370;2023-04-21T07:53:31;11.80;99.90
52509;DHT22;38420;53.150;6.370;2023-04-21T07:55:57;12.20;99.90
52509;DHT22;38420;53.150;6.370;2023-04-21T07:58:22;12.20;99.90
52509;DHT22;38420;53.150;6.370;2023-04-21T08:00:48;12.20;99.90
52509;DHT22;38420;53.150;6.370;2023-04-21T08:03:14;12.20;99.90
52509;DHT22;38420;53.150;6.370;2023-04-21T08:05:40;12.50;99.90
52509;DHT22;38420;53.150;6.370;2023-04-21T08:08:06;12.80;99.90
52509;DHT22;38420;53.150;6.370;2023-04-21T08:10:32;13.60;99.90
52509;DHT22;38420;53.150;6.370;2023-04-21T08:12:58;14.40;99.90
52509;DHT22;38420;53.150;6.370;2023-04-21T08:15:24;15.20;99.90
52509;DHT22;38420;53.150;6.370;2023-04-21T08:17:49;15.60;99.90
52509;DHT22;38420;53.150;6.370;2023-04-21T08:20:16;15.90;99.90
52509;DHT22;38420;53.150;6.370;2023-04-21T08:22:41;16.40;99.90
52509;DHT22;38420;53.150;6.370;2023-04-21T08:25:07;16.90;99.90
52509;DHT22;38420;53.150;6.370;2023-04-21T08:27:33;17.20;99.90
52509;DHT22;38420;53.150;6.370;2023-04-21T08:30:01;17.50;99.90
52509;DHT22;38420;53.150;6.370;2023-04-21T08:32:27;17.70;99.90
52509;DHT22;38420;53.150;6.370;2023-04-21T08:34:53;18.20;99.90
52509;DHT22;38420;53.150;6.370;2023-04-21T08:37:20;18.70;99.90
52509;DHT22;38420;53.150;6.370;2023-04-21T08:39:47;19.40;99.90
52509;DHT22;38420;53.150;6.370;2023-04-21T08:42:16;20.10;99.90
52509;DHT22;38420;53.150;6.370;2023-04-21T08:44:42;20.60;99.90
52509;DHT22;38420;53.150;6.370;2023-04-21T08:47:12;21.10;99.90
52509;DHT22;38420;53.150;6.370;2023-04-21T08:49:39;21.40;99.90
52509;DHT22;38420;53.150;6.370;2023-04-21T08:52:05;21.50;99.90
52509;DHT22;38420;53.150;6.370;2023-04-21T08:54:32;21.40;99.90
52509;DHT22;38420;53.150;6.370;2023-04-21T08:56:57;21.50;99.90
52509;DHT22;38420;53.150;6.370;2023-04-21T08:59:23;21.40;99.90
52509;DHT22;38420;53.150;6.370;2023-04-21T09:02:07;21.30;99.90
52509;DHT22;38420;53.150;6.370;2023-04-21T09:04:34;20.80;99.90
52509;DHT22;38420;53.150;6.370;2023-04-21T09:07:00;20.80;99.90
52509;DHT22;38420;53.150;6.370;2023-04-21T09:09:25;20.50;99.90
52509;DHT22;38420;53.150;6.370;2023-04-21T09:11:55;20.10;99.90
52509;DHT22;38420;53.150;6.370;2023-04-21T09:14:34;19.80;99.90
52509;DHT22;38420;53.150;6.370;2023-04-21T09:17:01;19.10;99.90
52509;DHT22;38420;53.150;6.370;2023-04-21T09:19:27;18.20;99.90
52509;DHT22;38420;53.150;6.370;2023-04-21T09:21:53;17.90;99.90
52509;DHT22;38420;53.150;6.370;2023-04-21T09:24:19;17.60;99.90
52509;DHT22;38420;53.150;6.370;2023-04-21T09:26:52;17.10;99.90
52509;DHT22;38420;53.150;6.370;2023-04-21T09:29:23;17.00;99.90
52509;DHT22;38420;53.150;6.370;2023-04-21T09:31:50;16.90;99.90
52509;DHT22;38420;53.150;6.370;2023-04-21T09:34:21;16.90;99.90
52509;DHT22;38420;53.150;6.370;2023-04-21T09:37:01;17.00;99.90
52509;DHT22;38420;53.150;6.370;2023-04-21T09:39:31;17.00;99.90
52509;DHT22;38420;53.150;6.370;2023-04-21T09:41:57;17.10;99.90
52509;DHT22;38420;53.150;6.370;2023-04-21T09:44:26;17.10;99.90
52509;DHT22;38420;53.150;6.370;2023-04-21T09:46:59;17.20;99.90
52509;DHT22;38420;53.150;6.370;2023-04-21T09:49:29;17.20;99.90
52509;DHT22;38420;53.150;6.370;2023-04-21T09:51:57;17.20;99.90
52509;DHT22;38420;53.150;6.370;2023-04-21T09:54:31;17.20;99.90
52509;DHT22;38420;53.150;6.370;2023-04-21T09:56:59;17.40;99.90
52509;DHT22;38420;53.150;6.370;2023-04-21T09:59:31;17.40;99.90
52509;DHT22;38420;53.150;6.370;2023-04-21T10:01:57;17.30;99.90
52509;DHT22;38420;53.150;6.370;2023-04-21T10:04:24;17.30;99.90
52509;DHT22;38420;53.150;6.370;2023-04-21T10:06:52;17.30;99.90
52509;DHT22;38420;53.150;6.370;2023-04-21T10:09:20;17.20;99.90
52509;DHT22;38420;53.150;6.370;2023-04-21T10:11:47;17.30;99.90
52509;DHT22;38420;53.150;6.370;2023-04-21T10:14:12;17.30;99.90
52509;DHT22;38420;53.150;6.370;2023-04-21T10:16:38;17.40;99.90
52509;DHT22;38420;53.150;6.370;2023-04-21T10:19:26;17.40;99.90
52509;DHT22;38420;53.150;6.370;2023-04-21T10:21:55;17.60;99.90
52509;DHT22;38420;53.150;6.370;2023-04-21T10:24:28;17.50;99.90
52509;DHT22;38420;53.150;6.370;2023-04-21T10:26:56;17.60;99.90
52509;DHT22;38420;53.150;6.370;2023-04-21T10:29:31;17.80;99.90
52509;DHT22;38420;53.150;6.370;2023-04-21T10:31:57;17.90;99.90
52509;DHT22;38420;53.150;6.370;2023-04-21T10:39:29;17.80;99.90
52509;DHT22;38420;53.150;6.370;2023-04-21T10:44:43;18.00;99.90
52509;DHT22;38420;53.150;6.370;2023-04-21T10:47:09;18.20;99.90
52509;DHT22;38420;53.150;6.370;2023-04-21T10:49:39;18.20;99.90
52509;DHT22;38420;53.150;6.370;2023-04-21T10:52:08;18.40;99.90
52509;DHT22;38420;53.150;6.370;2023-04-21T10:57:18;18.60;99.90
52509;DHT22;38420;53.150;6.370;2023-04-21T10:59:45;18.70;99.90
52509;DHT22;38420;53.150;6.370;2023-04-21T11:02:13;18.80;99.90
52509;DHT22;38420;53.150;6.370;2023-04-21T11:04:40;18.90;99.90
52509;DHT22;38420;53.150;6.370;2023-04-21T11:07:16;19.00;99.90
52509;DHT22;38420;53.150;6.370;2023-04-21T11:09:44;19.10;99.90
52509;DHT22;38420;53.150;6.370;2023-04-21T11:12:16;19.10;99.90
52509;DHT22;38420;53.150;6.370;2023-04-21T11:14:45;19.00;99.90
52509;DHT22;38420;53.150;6.370;2023-04-21T11:17:21;19.10;99.90
52509;DHT22;38420;53.150;6.370;2023-04-21T11:19:53;19.20;99.90
52509;DHT22;38420;53.150;6.370;2023-04-21T11:22:20;19.30;99.90
52509;DHT22;38420;53.150;6.370;2023-04-21T11:24:50;19.30;99.90
52509;DHT22;38420;53.150;6.370;2023-04-21T11:27:17;19.30;99.90
52509;DHT22;38420;53.150;6.370;2023-04-21T11:29:44;19.40;99.90
52509;DHT22;38420;53.150;6.370;2023-04-21T11:32:11;19.30;99.90
52509;DHT22;38420;53.150;6.370;2023-04-21T11:34:37;19.20;99.90
52509;DHT22;38420;53.150;6.370;2023-04-21T11:37:05;19.00;99.90
52509;DHT22;38420;53.150;6.370;2023-04-21T11:39:31;19.10;99.90
52509;DHT22;38420;53.150;6.370;2023-04-21T11:41:56;19.10;99.90
52509;DHT22;38420;53.150;6.370;2023-04-21T11:44:40;18.90;99.90
52509;DHT22;38420;53.150;6.370;2023-04-21T11:47:14;18.90;99.90
52509;DHT22;38420;53.150;6.370;2023-04-21T11:49:47;18.80;99.90
52509;DHT22;38420;53.150;6.370;2023-04-21T11:54:46;19.10;99.90
52509;DHT22;38420;53.150;6.370;2023-04-21T11:57:11;19.10;99.90
52509;DHT22;38420;53.150;6.370;2023-04-21T11:59:37;19.30;99.90
52509;DHT22;38420;53.150;6.370;2023-04-21T12:02:03;19.30;99.90
52509;DHT22;38420;53.150;6.370;2023-04-21T12:04:28;19.30;99.90
52509;DHT22;38420;53.150;6.370;2023-04-21T12:06:59;19.40;99.90
52509;DHT22;38420;53.150;6.370;2023-04-21T12:09:25;19.30;99.40
52509;DHT22;38420;53.150;6.370;2023-04-21T12:11:55;19.30;98.40
52509;DHT22;38420;53.150;6.370;2023-04-21T12:14:28;19.40;98.50
52509;DHT22;38420;53.150;6.370;2023-04-21T12:16:56;19.20;98.00
52509;DHT22;38420;53.150;6.370;2023-04-21T12:19:37;19.20;98.00
52509;DHT22;38420;53.150;6.370;2023-04-21T12:22:13;19.30;96.40
52509;DHT22;38420;53.150;6.370;2023-04-21T12:24:40;19.20;96.50
52509;DHT22;38420;53.150;6.370;2023-04-21T12:27:06;19.10;95.70
52509;DHT22;38420;53.150;6.370;2023-04-21T12:29:32;19.10;96.40
52509;DHT22;38420;53.150;6.370;2023-04-21T12:32:03;19.20;97.20
52509;DHT22;38420;53.150;6.370;2023-04-21T12:34:29;19.20;96.40
52509;DHT22;38420;53.150;6.370;2023-04-21T12:36:54;19.30;96.20
52509;DHT22;38420;53.150;6.370;2023-04-21T12:39:20;19.30;95.20
52509;DHT22;38420;53.150;6.370;2023-04-21T12:41:46;19.50;95.20
52509;DHT22;38420;53.150;6.370;2023-04-21T12:44:12;19.50;94.90
52509;DHT22;38420;53.150;6.370;2023-04-21T12:46:38;19.60;95.10
52509;DHT22;38420;53.150;6.370;2023-04-21T12:49:04;19.90;96.00
52509;DHT22;38420;53.150;6.370;2023-04-21T12:51:32;20.00;95.10
52509;DHT22;38420;53.150;6.370;2023-04-21T12:53:58;20.30;96.20
52509;DHT22;38420;53.150;6.370;2023-04-21T12:56:24;20.40;95.00
52509;DHT22;38420;53.150;6.370;2023-04-21T12:58:49;20.40;93.00
52509;DHT22;38420;53.150;6.370;2023-04-21T13:01:15;20.40;93.20
52509;DHT22;38420;53.150;6.370;2023-04-21T13:03:41;20.50;93.40
52509;DHT22;38420;53.150;6.370;2023-04-21T13:06:07;20.60;93.70
52509;DHT22;38420;53.150;6.370;2023-04-21T13:08:34;20.70;92.50
52509;DHT22;38420;53.150;6.370;2023-04-21T13:11:01;20.70;92.40
52509;DHT22;38420;53.150;6.370;2023-04-21T13:13:26;20.70;91.50
52509;DHT22;38420;53.150;6.370;2023-04-21T13:15:52;20.80;92.00
52509;DHT22;38420;53.150;6.370;2023-04-21T13:18:18;20.70;92.20
52509;DHT22;38420;53.150;6.370;2023-04-21T13:20:43;20.70;92.00
52509;DHT22;38420;53.150;6.370;2023-04-21T13:23:09;20.60;91.60
52509;DHT22;38420;53.150;6.370;2023-04-21T13:25:36;20.40;90.90
52509;DHT22;38420;53.150;6.370;2023-04-21T13:28:01;20.40;91.30
52509;DHT22;38420;53.150;6.370;2023-04-21T13:30:27;20.40;91.30
52509;DHT22;38420;53.150;6.370;2023-04-21T13:32:53;20.40;90.50
52509;DHT22;38420;53.150;6.370;2023-04-21T13:35:18;20.30;91.00
52509;DHT22;38420;53.150;6.370;2023-04-21T13:37:44;20.40;90.70
52509;DHT22;38420;53.150;6.370;2023-04-21T13:40:10;20.30;90.00
52509;DHT22;38420;53.150;6.370;2023-04-21T13:42:38;20.30;90.60
52509;DHT22;38420;53.150;6.370;2023-04-21T13:45:05;20.30;89.30
52509;DHT22;38420;53.150;6.370;2023-04-21T13:47:31;20.30;87.90
52509;DHT22;38420;53.150;6.370;2023-04-21T13:49:57;20.30;89.80
52509;DHT22;38420;53.150;6.370;2023-04-21T13:52:23;20.30;88.10
52509;DHT22;38420;53.150;6.370;2023-04-21T13:54:50;20.40;88.10
52509;DHT22;38420;53.150;6.370;2023-04-21T13:57:16;20.30;86.10
52509;DHT22;38420;53.150;6.370;2023-04-21T13:59:42;20.20;84.30
52509;DHT22;38420;53.150;6.370;2023-04-21T14:02:08;20.20;85.60
52509;DHT22;38420;53.150;6.370;2023-04-21T14:04:34;20.20;86.20
52509;DHT22;38420;53.150;6.370;2023-04-21T14:07:00;20.20;86.20
52509;DHT22;38420;53.150;6.370;2023-04-21T14:09:26;20.30;86.70
52509;DHT22;38420;53.150;6.370;2023-04-21T14:11:52;20.30;86.30
52509;DHT22;38420;53.150;6.370;2023-04-21T14:14:18;20.20;87.10
52509;DHT22;38420;53.150;6.370;2023-04-21T14:16:45;20.20;87.20
52509;DHT22;38420;53.150;6.370;2023-04-21T14:19:13;20.30;86.00
52509;DHT22;38420;53.150;6.370;2023-04-21T14:21:40;20.30;85.00
52509;DHT22;38420;53.150;6.370;2023-04-21T14:24:06;20.20;85.20
52509;DHT22;38420;53.150;6.370;2023-04-21T14:26:32;20.20;86.50
52509;DHT22;38420;53.150;6.370;2023-04-21T14:28:57;20.10;86.00
52509;DHT22;38420;53.150;6.370;2023-04-21T14:31:25;20.10;85.40
52509;DHT22;38420;53.150;6.370;2023-04-21T14:33:50;20.00;84.40
52509;DHT22;38420;53.150;6.370;2023-04-21T14:36:16;20.00;83.70
52509;DHT22;38420;53.150;6.370;2023-04-21T14:38:41;19.90;83.80
52509;DHT22;38420;53.150;6.370;2023-04-21T14:41:07;20.00;83.40
52509;DHT22;38420;53.150;6.370;2023-04-21T14:43:33;20.10;83.90
52509;DHT22;38420;53.150;6.370;2023-04-21T14:45:59;20.30;83.20
52509;DHT22;38420;53.150;6.370;2023-04-21T14:48:25;20.30;83.60
52509;DHT22;38420;53.150;6.370;2023-04-21T14:50:51;20.30;83.60
52509;DHT22;38420;53.150;6.370;2023-04-21T14:53:17;20.30;83.60
52509;DHT22;38420;53.150;6.370;2023-04-21T14:55:42;20.20;83.00
52509;DHT22;38420;53.150;6.370;2023-04-21T14:58:08;20.20;83.90
52509;DHT22;38420;53.150;6.370;2023-04-21T15:00:34;20.20;82.70
52509;DHT22;38420;53.150;6.370;2023-04-21T15:03:00;20.20;83.60
52509;DHT22;38420;53.150;6.370;2023-04-21T15:05:26;20.30;84.10
52509;DHT22;38420;53.150;6.370;2023-04-21T15:07:52;20.30;84.00
52509;DHT22;38420;53.150;6.370;2023-04-21T15:10:18;20.40;83.40
52509;DHT22;38420;53.150;6.370;2023-04-21T15:12:43;20.50;83.00
52509;DHT22;38420;53.150;6.370;2023-04-21T15:15:10;20.60;83.00
52509;DHT22;38420;53.150;6.370;2023-04-21T15:17:36;20.60;83.30
52509;DHT22;38420;53.150;6.370;2023-04-21T15:20:02;20.60;84.40
52509;DHT22;38420;53.150;6.370;2023-04-21T15:22:27;20.50;84.50
52509;DHT22;38420;53.150;6.370;2023-04-21T15:24:53;20.40;81.70
52509;DHT22;38420;53.150;6.370;2023-04-21T15:27:19;20.30;82.20
52509;DHT22;38420;53.150;6.370;2023-04-21T15:29:45;20.30;82.30
52509;DHT22;38420;53.150;6.370;2023-04-21T15:32:11;20.30;81.20
52509;DHT22;38420;53.150;6.370;2023-04-21T15:34:37;20.40;82.50
52509;DHT22;38420;53.150;6.370;2023-04-21T15:37:03;20.50;82.40
52509;DHT22;38420;53.150;6.370;2023-04-21T15:39:28;20.60;81.50
52509;DHT22;38420;53.150;6.370;2023-04-21T15:41:54;20.60;81.30
52509;DHT22;38420;53.150;6.370;2023-04-21T15:44:20;20.60;82.30
52509;DHT22;38420;53.150;6.370;2023-04-21T15:46:46;20.50;82.10